Time;durP1;ratioP1;P1;durP2;ratioP2;P2;SDS_P1;SDS_P2;PMS_P1;PMS_P2;Temp;Humidity;BMP_temperature;BMP_pressure;BME280_temperature;BME280_humidity;BME280_pressure;Samples;Min_cycle;Max_cycle;Signal;HPM_P1;HPM_P2
2022/12/22 03:26:07;;;;;;;79.55;15.18;;;12.80;99.90;;;12.01;100.00;100781.63;4169462;28;20064;-71
2022/12/22 03:28:10;;;;;;;68.72;13.20;;;12.80;99.90;;;12.01;100.00;100780.81;4168569;28;20035;-71
2022/12/22 03:30:11;;;;;;;80.72;13.30;;;12.80;99.90;;;12.02;100.00;100778.00;4169549;28;20025;-71
2022/12/22 03:32:12;;;;;;;80.25;14.20;;;12.80;99.90;;;11.96;100.00;100776.03;4168173;28;20423;-71
2022/12/22 03:34:13;;;;;;;71.18;13.35;;;12.80;99.90;;;11.96;100.00;100778.66;4169309;28;20029;-71
2022/12/22 03:36:14;;;;;;;76.38;14.75;;;12.80;99.90;;;12.04;100.00;100785.75;4168543;28;20040;-71
2022/12/22 03:38:15;;;;;;;66.78;15.00;;;12.80;99.90;;;12.04;100.00;100773.38;4169234;28;20048;-71
2022/12/22 03:40:16;;;;;;;71.32;13.30;;;12.80;99.90;;;12.03;100.00;100768.25;4167989;28;20029;-70
2022/12/22 03:46:56;;;;;;;77.10;12.48;;;12.80;99.90;;;12.11;100.00;100795.53;4169262;28;20432;-71
2022/12/22 03:49:09;;;;;;;68.40;11.15;;;12.80;99.90;;;11.97;100.00;100798.84;4167821;28;20022;-70
2022/12/22 03:51:10;;;;;;;61.15;12.10;;;12.80;99.90;;;11.92;100.00;100816.16;4168182;28;20049;-71
2022/12/22 03:53:11;;;;;;;76.85;14.15;;;12.80;99.90;;;11.91;100.00;100810.06;4169174;28;20100;-71
2022/12/22 03:55:12;;;;;;;85.97;15.77;;;12.80;99.90;;;11.95;100.00;100813.19;4154925;28;20040;-71
2022/12/22 03:57:13;;;;;;;64.07;12.82;;;12.80;99.90;;;11.95;100.00;100808.72;4169086;28;20025;-71
2022/12/22 03:59:14;;;;;;;70.22;13.88;;;12.80;99.90;;;11.91;100.00;100815.34;4169092;28;20032;-71
2022/12/22 04:01:15;;;;;;;67.85;13.07;;;12.80;99.90;;;11.96;100.00;100825.41;4167778;28;20048;-71
2022/12/22 04:03:16;;;;;;;82.35;16.48;;;12.80;99.90;;;11.91;100.00;100818.00;4168759;28;20100;-71
2022/12/22 04:05:17;;;;;;;70.80;14.00;;;12.80;99.90;;;12.01;100.00;100818.66;4167816;28;20087;-71
2022/12/22 04:07:18;;;;;;;67.40;15.65;;;12.80;99.90;;;11.90;100.00;100826.91;4169050;28;20096;-71
2022/12/22 04:09:21;;;;;;;70.10;12.98;;;12.80;99.90;;;11.89;100.00;100821.75;4168874;28;20489;-71
2022/12/22 04:13:41;;;;;;;72.30;13.18;;;12.70;99.90;;;11.92;100.00;100838.13;4167949;28;20060;-71
2022/12/22 04:15:42;;;;;;;69.63;13.05;;;12.70;99.90;;;11.87;100.00;100829.03;4167374;28;20045;-71
2022/12/22 04:17:43;;;;;;;62.60;12.13;;;12.70;99.90;;;11.90;100.00;100826.91;4167526;28;20052;-71
2022/12/22 04:19:44;;;;;;;63.88;11.85;;;12.70;99.90;;;11.97;100.00;100829.72;4168600;28;20036;-71
2022/12/22 04:21:45;;;;;;;64.88;11.70;;;12.70;99.90;;;11.83;100.00;100825.88;4168870;28;20022;-71
2022/12/22 04:23:50;;;;;;;74.35;13.52;;;12.70;99.90;;;11.80;100.00;100820.13;4167431;28;20501;-71
2022/12/22 04:25:50;;;;;;;61.03;13.43;;;12.70;99.90;;;11.81;100.00;100819.94;4167469;28;20528;-71
2022/12/22 04:27:51;;;;;;;81.22;16.73;;;12.70;99.90;;;11.84;100.00;100832.00;4168885;28;20033;-71
2022/12/22 04:29:52;;;;;;;79.22;14.60;;;12.70;99.90;;;11.75;100.00;100830.31;4168830;28;20448;-71
2022/12/22 04:31:53;;;;;;;68.78;12.63;;;12.70;99.90;;;11.77;100.00;100831.00;4167642;28;20022;-71
2022/12/22 04:33:54;;;;;;;77.28;13.90;;;12.70;99.90;;;11.78;100.00;100830.84;4167785;28;20087;-71
2022/12/22 04:35:55;;;;;;;71.47;12.98;;;12.60;99.90;;;11.80;100.00;100820.91;4168677;28;20476;-70
2022/12/22 04:37:56;;;;;;;65.75;12.90;;;12.60;99.90;;;11.81;100.00;100827.88;4168631;28;20048;-71
2022/12/22 04:39:57;;;;;;;73.93;12.80;;;12.60;99.90;;;11.82;100.00;100821.59;4150917;28;20041;-71
2022/12/22 04:41:57;;;;;;;69.15;13.35;;;12.60;99.90;;;11.81;100.00;100829.69;4167271;28;20025;-71
2022/12/22 04:43:58;;;;;;;69.47;14.07;;;12.60;99.90;;;11.83;100.00;100825.88;4168636;28;20029;-71
2022/12/22 04:46:00;;;;;;;69.60;12.68;;;12.70;99.90;;;11.82;100.00;100824.25;4167560;28;20064;-71
2022/12/22 04:48:01;;;;;;;75.07;13.35;;;12.70;99.90;;;11.73;100.00;100819.09;4168326;28;20397;-71
2022/12/22 04:50:04;;;;;;;63.15;12.88;;;12.60;99.90;;;11.67;100.00;100817.91;4168357;28;20030;-71
2022/12/22 04:52:04;;;;;;;72.18;15.85;;;12.50;99.90;;;11.68;100.00;100824.81;4167432;28;20592;-71
2022/12/22 04:54:05;;;;;;;76.25;13.38;;;12.50;99.90;;;11.59;100.00;100823.13;4167392;28;20037;-71
2022/12/22 04:56:07;;;;;;;68.18;14.85;;;12.40;99.90;;;11.58;100.00;100840.84;4168471;28;20025;-71
2022/12/22 04:58:08;;;;;;;71.53;12.65;;;12.40;99.90;;;11.60;100.00;100840.66;4168394;28;20481;-71
2022/12/22 05:00:10;;;;;;;68.82;12.07;;;12.40;99.90;;;11.59;100.00;100836.34;4167153;28;20025;-71
2022/12/22 05:02:11;;;;;;;71.80;14.15;;;12.40;99.90;;;11.76;100.00;100853.97;4167244;28;20065;-71
2022/12/22 05:04:12;;;;;;;62.17;12.85;;;12.40;99.90;;;11.78;100.00;100837.94;4168294;28;20089;-71
2022/12/22 05:06:14;;;;;;;70.30;13.85;;;12.50;99.90;;;11.75;100.00;100830.31;4168396;28;20029;-71
2022/12/22 05:08:15;;;;;;;67.50;13.68;;;12.50;99.90;;;11.75;100.00;100832.97;4167288;28;20097;-71
2022/12/22 05:10:16;;;;;;;76.60;12.65;;;12.50;99.90;;;11.79;100.00;100835.13;4168602;28;20030;-71
2022/12/22 05:14:36;;;;;;;74.00;11.75;;;12.60;99.90;;;11.81;100.00;100827.03;4168159;28;20095;-70
2022/12/22 05:16:37;;;;;;;70.45;13.55;;;12.60;99.90;;;11.88;100.00;100842.09;4167054;28;20532;-71
2022/12/22 05:18:41;;;;;;;63.40;12.80;;;12.60;99.90;;;11.82;100.00;100839.28;4168120;28;20057;-70
2022/12/22 05:20:42;;;;;;;67.97;14.00;;;12.60;99.90;;;11.83;100.00;100852.31;4168223;28;20030;-71
2022/12/22 05:22:44;;;;;;;63.65;11.68;;;12.60;99.90;;;11.78;100.00;100859.06;4168206;28;20033;-71
2022/12/22 05:24:45;;;;;;;70.20;12.63;;;12.60;99.90;;;11.77;100.00;100845.03;4167261;28;20029;-71
2022/12/22 05:26:45;;;;;;;68.05;12.43;;;12.60;99.90;;;11.78;100.00;100844.06;4167111;28;20025;-71
2022/12/22 05:28:47;;;;;;;74.05;13.93;;;12.60;99.90;;;11.72;100.00;100836.75;4168276;28;20048;-71
2022/12/22 05:30:47;;;;;;;68.85;11.70;;;12.60;99.90;;;11.71;100.00;100852.78;4166914;28;20113;-71
2022/12/22 05:32:48;;;;;;;77.93;12.60;;;12.50;99.90;;;11.68;100.00;100847.81;4168359;28;20029;-71
2022/12/22 05:34:49;;;;;;;60.90;12.20;;;12.50;99.90;;;11.75;100.00;100844.38;4157622;28;20084;-71
2022/12/22 05:36:50;;;;;;;65.03;11.73;;;12.60;99.90;;;11.77;100.00;100850.31;4164054;28;20052;-71
2022/12/22 05:38:51;;;;;;;73.85;11.30;;;12.60;99.90;;;11.76;100.00;100840.75;4167086;28;20079;-71
2022/12/22 05:40:52;;;;;;;53.13;12.00;;;12.60;99.90;;;11.79;100.00;100845.72;4168131;28;20033;-71
2022/12/22 05:42:53;;;;;;;52.15;12.02;;;12.60;99.90;;;11.75;100.00;100841.72;4168163;28;20024;-71
2022/12/22 05:44:54;;;;;;;58.05;11.38;;;12.50;99.90;;;11.60;100.00;100835.38;4168161;28;20504;-71
2022/12/22 05:46:55;;;;;;;63.50;15.02;;;12.50;99.90;;;11.56;100.00;100837.50;4170811;28;20026;-71
2022/12/22 05:48:56;;;;;;;63.15;11.77;;;12.40;99.90;;;11.52;100.00;100843.28;4170937;28;20053;-71
2022/12/22 05:50:57;;;;;;;62.25;11.77;;;12.40;99.90;;;11.62;100.00;100846.59;4169842;28;20060;-71
2022/12/22 05:52:58;;;;;;;62.20;13.45;;;12.50;99.90;;;11.71;100.00;100835.09;4169860;28;20159;-71
2022/12/22 05:54:59;;;;;;;65.65;12.18;;;12.50;99.90;;;11.76;100.00;100835.47;4170966;28;20061;-71
2022/12/22 05:57:00;;;;;;;66.82;12.18;;;12.50;99.90;;;11.72;100.00;100849.97;4169587;28;20036;-71
2022/12/22 05:59:00;;;;;;;63.17;13.13;;;12.50;99.90;;;11.64;100.00;100834.06;4170922;28;20029;-71
2022/12/22 06:01:02;;;;;;;72.10;11.32;;;12.50;99.90;;;11.65;100.00;100825.97;4169801;28;20370;-71
2022/12/22 06:03:03;;;;;;;61.85;11.20;;;12.50;99.90;;;11.74;100.00;100832.13;4169667;28;20033;-71
2022/12/22 06:05:04;;;;;;;62.65;11.32;;;12.50;99.90;;;11.79;100.00;100824.56;4153298;28;20021;-71
2022/12/22 06:07:05;;;;;;;57.03;10.25;;;12.60;99.90;;;11.76;100.00;100826.69;4161926;28;20037;-71
2022/12/22 06:09:06;;;;;;;62.70;11.10;;;12.60;99.90;;;11.78;100.00;100817.63;4170685;28;20076;-71
2022/12/22 06:11:07;;;;;;;64.20;10.05;;;12.60;99.90;;;11.71;100.00;100815.81;4170679;28;20079;-71
2022/12/22 06:13:08;;;;;;;60.38;10.98;;;12.50;99.90;;;11.76;100.00;100811.69;4170757;28;20060;-71
2022/12/22 06:15:12;;;;;;;55.80;11.80;;;12.60;99.90;;;11.84;100.00;100822.25;4169189;28;20156;-71
2022/12/22 06:17:13;;;;;;;60.50;11.70;;;12.60;99.90;;;11.87;100.00;100814.00;4170885;28;20022;-71
2022/12/22 06:19:14;;;;;;;58.83;11.65;;;12.70;99.90;;;11.86;100.00;100822.09;4168991;28;20032;-71
2022/12/22 06:21:15;;;;;;;66.00;13.88;;;12.70;99.90;;;11.92;100.00;100822.25;4170768;28;20029;-71
2022/12/22 06:23:16;;;;;;;71.03;13.27;;;12.70;99.90;;;11.94;100.00;100817.66;4169231;28;20028;-71
2022/12/22 06:25:17;;;;;;;56.03;10.80;;;12.70;99.90;;;11.95;100.00;100818.47;4170588;28;20026;-71
2022/12/22 06:27:17;;;;;;;61.45;10.05;;;12.70;99.90;;;11.91;100.00;100818.00;4170514;28;20026;-71
2022/12/22 06:29:18;;;;;;;56.83;12.80;;;12.70;99.90;;;11.96;100.00;100826.25;4170207;28;20036;-71
2022/12/22 06:31:19;;;;;;;67.25;11.27;;;12.70;99.90;;;11.90;100.00;100818.97;4170482;28;20017;-71
2022/12/22 06:33:20;;;;;;;60.95;11.93;;;12.70;99.90;;;11.90;100.00;100828.72;4170169;28;20029;-71
2022/12/22 06:35:21;;;;;;;60.83;12.13;;;12.70;99.90;;;11.81;100.00;100817.28;4169118;28;20108;-71
2022/12/22 06:37:22;;;;;;;59.17;12.85;;;12.70;99.90;;;11.80;100.00;100841.25;4170505;28;20083;-71
2022/12/22 06:39:23;;;;;;;61.33;14.32;;;12.70;99.90;;;11.80;100.00;100838.63;4170212;28;20021;-71
2022/12/22 06:43:43;;;;;;;77.95;12.52;;;12.60;99.90;;;11.73;100.00;100825.22;4170290;28;20091;-71
2022/12/22 06:45:44;;;;;;;70.65;12.70;;;12.60;99.90;;;11.74;100.00;100832.13;4170287;28;20030;-71
2022/12/22 06:47:45;;;;;;;70.57;12.85;;;12.60;99.90;;;11.75;100.00;100839.09;4168870;28;20026;-71
2022/12/22 06:49:46;;;;;;;54.92;12.98;;;12.60;99.90;;;11.79;100.00;100844.88;4169912;28;20041;-71
2022/12/22 06:51:47;;;;;;;63.03;10.95;;;12.60;99.90;;;11.81;100.00;100830.50;4169908;28;20489;-71
2022/12/22 06:53:48;;;;;;;75.75;12.38;;;12.60;99.90;;;11.86;100.00;100841.41;4168970;28;20025;-71
2022/12/22 06:55:49;;;;;;;66.45;11.45;;;12.60;99.90;;;11.86;100.00;100835.28;4168576;28;20056;-71
2022/12/22 06:57:50;;;;;;;57.50;10.38;;;12.60;99.90;;;11.85;100.00;100839.78;4169622;28;20433;-71
2022/12/22 06:59:51;;;;;;;62.97;13.48;;;12.60;99.90;;;11.83;100.00;100833.81;4169928;28;20065;-70
2022/12/22 07:01:52;;;;;;;68.57;13.93;;;12.70;99.90;;;11.86;100.00;100841.41;4168699;28;20030;-71
2022/12/22 07:03:53;;;;;;;60.88;12.98;;;12.70;99.90;;;11.82;100.00;100834.81;4169686;28;20389;-71
2022/12/22 07:05:53;;;;;;;59.35;12.07;;;12.70;99.90;;;11.89;100.00;100837.63;4169836;28;20096;-71
2022/12/22 07:07:54;;;;;;;69.78;11.80;;;12.70;99.90;;;11.81;100.00;100833.16;4168498;28;20037;-71
2022/12/22 07:09:55;;;;;;;60.72;12.30;;;12.70;99.90;;;11.78;100.00;100830.00;4168636;28;20037;-70
2022/12/22 07:11:56;;;;;;;60.03;11.32;;;12.60;99.90;;;11.73;100.00;100833.16;4168441;28;20057;-71
2022/12/22 07:13:57;;;;;;;76.85;13.85;;;12.60;99.90;;;11.66;100.00;100840.00;4169287;28;20034;-71
2022/12/22 07:16:03;;;;;;;80.00;15.10;;;12.50;99.90;;;11.68;100.00;100838.03;4168113;28;20057;-71
2022/12/22 07:18:04;;;;;;;68.93;12.57;;;12.50;99.90;;;11.63;100.00;100843.81;4151696;28;20026;-71
2022/12/22 07:20:06;;;;;;;72.90;12.30;;;12.50;99.90;;;11.72;100.00;100831.47;4168325;28;20044;-71
2022/12/22 07:22:07;;;;;;;80.70;14.80;;;12.50;99.90;;;11.71;100.00;100834.28;4169615;28;20032;-70
2022/12/22 07:24:08;;;;;;;67.65;13.00;;;12.50;99.90;;;11.73;100.00;100830.50;4168622;28;20029;-71
2022/12/22 07:26:11;;;;;;;63.20;13.30;;;12.50;99.90;;;11.75;100.00;100832.97;4169102;28;20044;-71
2022/12/22 07:28:12;;;;;;;70.35;14.40;;;12.50;99.90;;;11.76;100.00;100824.06;4161123;28;20032;-71
2022/12/22 07:30:13;;;;;;;74.35;11.25;;;12.60;99.90;;;11.84;100.00;100835.47;4169609;28;20408;-70
2022/12/22 07:32:14;;;;;;;70.53;13.27;;;12.60;99.90;;;11.85;100.00;100833.66;4168034;28;20036;-71
2022/12/22 07:34:15;;;;;;;71.50;12.38;;;12.60;99.90;;;11.83;100.00;100823.25;4169389;28;20034;-71
2022/12/22 07:36:19;;;;;;;67.00;11.63;;;12.60;99.90;;;11.81;100.00;100832.31;4168035;28;20029;-71
2022/12/22 07:38:19;;;;;;;60.33;13.57;;;12.60;99.90;;;11.82;100.00;100840.09;4168168;28;20106;-71
2022/12/22 07:40:21;;;;;;;63.92;11.95;;;12.60;99.90;;;11.83;100.00;100840.91;4169088;28;20104;-71
2022/12/22 07:44:41;;;;;;;53.60;10.88;;;12.60;99.90;;;11.78;100.00;100854.63;4169157;28;20044;-71
2022/12/22 07:46:42;;;;;;;65.40;13.57;;;12.60;99.90;;;11.79;100.00;100855.44;4169317;28;20013;-71
2022/12/22 07:51:22;;;;;;;73.07;13.48;;;12.60;99.90;;;11.82;100.00;100863.91;4134860;28;20603;-71
2022/12/22 07:53:23;;;;;;;76.70;14.38;;;12.60;99.90;;;11.87;100.00;100873.97;4117015;28;20035;-71
2022/12/22 07:55:27;;;;;;;56.60;11.50;;;12.70;99.90;;;11.88;100.00;100873.81;4119010;28;20035;-71
2022/12/22 07:57:28;;;;;;;66.13;14.88;;;12.70;99.90;;;11.92;100.00;100859.28;4161883;28;20037;-71
2022/12/22 07:59:29;;;;;;;62.47;10.60;;;12.70;99.90;;;11.93;100.00;100873.31;4167760;28;20032;-70
2022/12/22 08:01:30;;;;;;;67.65;12.45;;;12.70;99.90;;;11.99;100.00;100877.97;4167699;28;20029;-71
2022/12/22 08:03:31;;;;;;;74.93;13.82;;;12.80;99.90;;;11.99;100.00;100878.78;4167840;28;20394;-71
2022/12/22 08:05:32;;;;;;;57.08;11.68;;;12.80;99.90;;;11.97;100.00;100895.81;4169003;28;20044;-71
2022/12/22 08:07:33;;;;;;;64.07;10.07;;;12.80;99.90;;;12.06;100.00;100884.28;4168584;28;20462;-71
2022/12/22 08:09:33;;;;;;;75.00;12.80;;;12.80;99.90;;;12.08;100.00;100885.75;4152633;28;20026;-71
2022/12/22 08:11:35;;;;;;;74.03;12.65;;;12.90;99.90;;;12.06;100.00;100884.28;4168973;28;20540;-71
2022/12/22 08:13:36;;;;;;;68.50;13.07;;;12.90;99.90;;;12.07;100.00;100885.91;4169083;28;20021;-71
2022/12/22 08:15:37;;;;;;;61.03;13.57;;;12.90;99.90;;;12.02;100.00;100904.91;4167378;28;20050;-71
2022/12/22 08:17:38;;;;;;;73.18;14.88;;;12.80;99.90;;;12.01;100.00;100892.69;4168703;28;20072;-71
2022/12/22 08:19:40;;;;;;;67.80;13.13;;;12.80;99.90;;;12.04;100.00;100902.09;4168575;28;20026;-71
2022/12/22 08:21:40;;;;;;;58.10;12.50;;;12.80;99.90;;;12.02;100.00;100888.22;4167769;28;20021;-71
2022/12/22 08:23:42;;;;;;;52.03;10.93;;;12.80;99.90;;;12.09;100.00;100892.72;4167573;28;20021;-71
2022/12/22 08:25:44;;;;;;;55.60;13.75;;;12.80;99.90;;;12.13;100.00;100882.63;4151030;28;20054;-71
2022/12/22 08:27:51;;;;;;;54.83;10.43;;;12.90;99.90;;;12.12;100.00;100891.56;4167486;28;20029;-71
2022/12/22 08:30:00;;;;;;;66.72;12.95;;;12.90;99.90;;;12.06;100.00;100877.16;4167545;28;20026;-71
2022/12/22 08:32:02;;;;;;;60.38;12.50;;;12.90;99.90;;;12.11;100.00;100874.84;4168804;28;20489;-71
2022/12/22 08:34:07;;;;;;;51.92;10.65;;;12.90;99.90;;;12.07;100.00;100870.88;4167158;28;20030;-71
2022/12/22 08:36:10;;;;;;;59.85;12.02;;;12.90;99.90;;;12.13;100.00;100880.81;4167717;28;20037;-71
2022/12/22 08:38:13;;;;;;;59.38;11.52;;;12.90;99.90;;;12.10;100.00;100886.41;4167326;28;20029;-71
2022/12/22 08:40:24;;;;;;;64.63;12.48;;;12.90;99.90;;;12.11;100.00;100872.22;4168544;28;20072;-71
2022/12/22 08:42:25;;;;;;;77.88;19.33;;;12.90;99.90;;;12.29;100.00;100871.25;4167557;28;20076;-71
2022/12/22 08:44:29;;;;;;;72.13;13.80;;;13.00;99.90;;;12.21;100.00;100870.22;4168770;28;20029;-72
2022/12/22 08:46:30;;;;;;;63.38;11.25;;;13.00;99.90;;;12.17;100.00;100868.09;4168608;28;20052;-71
2022/12/22 08:48:31;;;;;;;69.68;13.40;;;13.00;99.90;;;12.24;100.00;100871.75;4168212;28;20025;-71
2022/12/22 08:50:32;;;;;;;71.55;13.23;;;13.00;99.90;;;12.19;100.00;100859.00;4168724;28;20083;-71
2022/12/22 08:52:33;;;;;;;68.30;13.45;;;13.00;99.90;;;12.18;100.00;100854.69;4167413;28;20033;-71
2022/12/22 08:54:33;;;;;;;63.10;14.48;;;13.00;99.90;;;12.31;100.00;100871.91;4150849;28;20536;-71
2022/12/22 08:56:35;;;;;;;76.32;16.23;;;13.00;99.90;;;12.23;100.00;100879.81;4168379;28;20117;-71
2022/12/22 08:58:36;;;;;;;60.83;14.13;;;13.10;99.90;;;12.30;100.00;100864.97;4167580;28;20025;-71
2022/12/22 09:00:36;;;;;;;57.40;11.65;;;13.10;99.90;;;12.31;100.00;100871.91;4167292;28;20105;-71
2022/12/22 09:02:37;;;;;;;73.43;13.15;;;13.10;99.90;;;12.30;100.00;100871.09;4167285;28;20018;-71
2022/12/22 09:04:38;;;;;;;63.60;12.20;;;13.10;99.90;;;12.33;100.00;100872.56;4166950;28;20029;-71
2022/12/22 09:06:40;;;;;;;53.20;11.30;;;13.10;99.90;;;12.41;100.00;100873.41;4168493;28;20021;-71
2022/12/22 09:08:41;;;;;;;57.42;12.05;;;13.20;99.90;;;12.40;100.00;100860.31;4168456;28;20032;-71
2022/12/22 09:10:42;;;;;;;64.55;12.32;;;13.20;99.90;;;12.45;100.00;100863.31;4168469;28;20029;-71
2022/12/22 09:12:43;;;;;;;65.03;11.65;;;13.20;99.90;;;12.40;100.00;100861.16;4167749;28;20048;-71
2022/12/22 09:14:44;;;;;;;68.00;11.15;;;13.20;99.90;;;12.40;100.00;100860.31;4168496;28;20071;-71
2022/12/22 09:16:45;;;;;;;68.43;14.00;;;13.20;99.90;;;12.38;100.00;100857.88;4180192;28;20076;-71
2022/12/22 09:18:47;;;;;;;66.57;12.30;;;13.20;99.90;;;12.38;100.00;100857.03;4168163;28;20025;-71
2022/12/22 09:20:54;;;;;;;71.20;11.63;;;13.20;99.90;;;12.34;100.00;100859.16;4171038;28;20072;-71
2022/12/22 09:22:55;;;;;;;63.15;11.98;;;13.20;99.90;;;12.46;100.00;100854.38;4171551;28;20077;-71
2022/12/22 09:24:56;;;;;;;64.25;11.55;;;13.20;99.90;;;12.40;100.00;100845.28;4171514;28;20036;-71
2022/12/22 09:26:57;;;;;;;68.70;12.13;;;13.20;99.90;;;12.39;100.00;100848.13;4170889;28;20505;-71
2022/12/22 09:28:58;;;;;;;68.80;11.60;;;13.20;99.90;;;12.41;100.00;100843.47;4170178;28;20061;-71
2022/12/22 09:30:59;;;;;;;64.00;13.10;;;13.20;99.90;;;12.47;100.00;100840.16;4169970;28;20033;-71
2022/12/22 09:32:59;;;;;;;60.40;13.60;;;13.20;99.90;;;12.40;100.00;100839.16;4160677;28;20468;-71
2022/12/22 09:35:00;;;;;;;69.18;13.75;;;13.20;99.90;;;12.43;100.00;100841.47;4171363;28;20037;-71
2022/12/22 09:37:01;;;;;;;62.45;12.57;;;13.20;99.90;;;12.48;100.00;100839.19;4170113;28;20058;-71
2022/12/22 09:39:07;;;;;;;66.80;13.25;;;13.20;99.90;;;12.42;100.00;100831.91;4171316;28;20025;-71
2022/12/22 09:41:16;;;;;;;71.85;11.65;;;13.20;99.90;;;12.49;100.00;100836.34;4170151;28;20088;-71
2022/12/22 09:43:26;;;;;;;61.85;12.45;;;13.20;99.90;;;12.44;100.00;100830.75;4171300;28;20040;-71
2022/12/22 09:45:28;;;;;;;74.43;13.23;;;13.30;99.90;;;12.53;100.00;100823.63;4153929;28;20509;-71
2022/12/22 09:47:39;;;;;;;69.18;11.73;;;13.30;99.90;;;12.51;100.00;100825.63;4171099;28;20017;-71
2022/12/22 09:49:40;;;;;;;60.30;12.23;;;13.30;99.90;;;12.52;100.00;100828.09;4169822;28;20116;-71
2022/12/22 09:51:46;;;;;;;52.90;11.90;;;13.30;99.90;;;12.54;100.00;100825.28;4171002;28;20030;-71
2022/12/22 09:53:54;;;;;;;62.03;12.65;;;13.40;99.90;;;12.63;100.00;100832.22;4169894;28;20048;-71
2022/12/22 09:55:54;;;;;;;53.28;12.18;;;13.40;99.90;;;12.65;100.00;100825.78;4169750;28;20413;-71
2022/12/22 09:57:55;;;;;;;58.78;10.88;;;13.50;99.90;;;12.68;100.00;100833.38;4170817;28;20083;-71
2022/12/22 10:00:25;;;;;;;63.72;11.80;;;13.50;99.90;;;12.68;100.00;100828.09;4169502;28;20025;-71
2022/12/22 10:02:47;;;;;;;57.70;10.98;;;13.50;99.90;;;12.71;100.00;100832.22;4169029;28;20068;-71
2022/12/22 10:05:03;;;;;;;57.00;12.40;;;13.50;99.90;;;12.64;100.00;100823.28;4169588;28;20029;-71
2022/12/22 10:07:32;;;;;;;57.08;11.60;;;13.50;99.90;;;12.59;100.00;100823.78;4169383;28;21076;-71
2022/12/22 10:09:35;;;;;;;45.53;9.07;;;13.50;99.90;;;12.57;100.00;100827.59;4170647;28;20021;-71
2022/12/22 10:11:36;;;;;;;50.47;10.00;;;13.40;99.90;;;12.54;100.00;100817.34;4170843;28;20113;-71
2022/12/22 10:13:37;;;;;;;39.53;7.93;;;13.40;99.90;;;12.54;100.00;100825.28;4169526;28;20021;-71
2022/12/22 10:15:40;;;;;;;37.05;6.95;;;13.40;99.90;;;12.55;100.00;100833.03;4170622;28;20080;-71
2022/12/22 10:17:41;;;;;;;41.83;7.28;;;13.40;99.90;;;12.56;100.00;100828.59;4169094;28;20022;-71
2022/12/22 10:19:42;;;;;;;31.05;7.13;;;13.40;99.90;;;12.58;100.00;100826.59;4169544;28;20088;-71
2022/12/22 10:21:43;;;;;;;35.10;7.32;;;13.40;99.90;;;12.57;100.00;100803.78;4170635;28;20018;-71
2022/12/22 10:23:47;;;;;;;41.25;6.63;;;13.40;99.90;;;12.64;100.00;100804.75;4170565;28;20534;-71
2022/12/22 10:26:11;;;;;;;40.00;8.80;;;13.50;99.90;;;12.65;100.00;100793.19;4170389;28;20048;-71
2022/12/22 10:28:19;;;;;;;36.60;6.82;;;13.50;99.90;;;12.71;100.00;100811.03;4169196;28;20036;-71
2022/12/22 10:30:31;;;;;;;41.35;7.47;;;13.50;99.90;;;12.72;100.00;100796.81;4169104;28;20030;-72
2022/12/22 10:32:32;;;;;;;42.08;8.52;;;13.60;99.90;;;12.87;100.00;100795.13;4152576;28;20033;-71
2022/12/22 10:34:32;;;;;;;37.75;8.68;;;13.60;99.90;;;12.85;100.00;100797.09;4170193;28;20087;-71
2022/12/22 10:36:34;;;;;;;39.60;7.93;;;13.60;99.90;;;12.88;100.00;100780.88;4170275;28;20025;-71
2022/12/22 10:38:52;;;;;;;34.30;8.60;;;13.70;99.90;;;12.91;100.00;100779.72;4169001;28;20025;-71
2022/12/22 10:40:58;;;;;;;37.92;7.93;;;13.70;99.90;;;12.99;100.00;100783.16;4169205;28;20041;-71
2022/12/22 10:43:01;;;;;;;32.72;8.02;;;13.70;99.90;;;12.96;100.00;100775.56;4169112;28;20017;-71
2022/12/22 10:45:02;;;;;;;31.92;7.70;;;13.80;99.90;;;12.93;100.00;100770.59;4170106;28;20029;-71
2022/12/22 10:47:15;;;;;;;34.58;7.40;;;13.80;99.90;;;12.99;100.00;100761.97;4152584;28;20084;-71
2022/12/22 10:49:32;;;;;;;29.83;6.05;;;13.80;99.90;;;12.96;100.00;100751.72;4169956;28;20033;-71
2022/12/22 10:51:33;;;;;;;34.20;7.45;;;13.80;99.90;;;12.97;100.00;100750.75;4168920;28;20021;-71
2022/12/22 10:53:54;;;;;;;32.42;7.80;;;13.70;99.90;;;12.89;100.00;100756.06;4165756;28;20541;-71
2022/12/22 10:56:06;;;;;;;31.45;6.22;;;13.70;99.90;;;12.85;100.00;100748.63;4161443;28;20032;-70
2022/12/22 10:58:18;;;;;;;36.28;6.35;;;13.70;99.90;;;12.86;100.00;100751.13;4168697;28;20036;-71
2022/12/22 11:00:30;;;;;;;29.92;6.88;;;13.70;99.90;;;12.80;100.00;100746.50;4169074;28;20095;-71
2022/12/22 11:02:36;;;;;;;33.33;6.90;;;13.60;99.90;;;12.80;100.00;100743.84;4168709;28;20058;-71
2022/12/22 11:04:37;;;;;;;30.63;6.75;;;13.60;99.90;;;12.80;100.00;100737.72;4169472;28;20096;-71
2022/12/22 11:06:40;;;;;;;43.05;8.25;;;13.60;99.90;;;12.75;100.00;100744.34;4168812;28;20091;-70
2022/12/22 11:08:41;;;;;;;35.67;6.15;;;13.60;99.90;;;12.71;100.00;100743.06;4152324;28;20072;-71
2022/12/22 11:11:03;;;;;;;33.22;6.53;;;13.60;99.90;;;12.74;100.00;100742.72;4168579;28;20034;-71
2022/12/22 11:13:35;;;;;;;25.90;6.68;;;13.60;99.90;;;12.68;100.00;100753.16;4157261;28;20064;-71
2022/12/22 11:16:07;;;;;;;30.67;5.28;;;13.50;99.90;;;12.67;100.00;100757.63;4169524;28;20049;-71
2022/12/22 11:18:59;;;;;;;25.70;6.20;;;13.50;99.90;;;12.70;100.00;100754.63;4169654;28;20486;-71
2022/12/22 11:21:18;;;;;;;27.83;5.45;;;13.50;99.90;;;12.64;100.00;100746.53;4169550;28;20026;-71
2022/12/22 11:23:39;;;;;;;19.38;4.95;;;13.40;99.90;;;12.58;100.00;100741.91;4152526;28;20030;-71
2022/12/22 11:25:55;;;;;;;22.65;4.47;;;13.30;99.90;;;12.52;100.00;100732.00;4169461;28;20375;-71
2022/12/22 11:28:42;;;;;;;17.30;5.30;;;13.30;99.90;;;12.45;100.00;100752.22;4169593;28;20022;-71
2022/12/22 11:31:27;;;;;;;16.95;4.13;;;13.30;99.90;;;12.40;100.00;100757.16;4168506;28;20099;-71
2022/12/22 11:34:11;;;;;;;14.63;4.03;;;13.20;99.90;;;12.41;100.00;100758.81;4169207;28;20033;-71
2022/12/22 11:36:32;;;;;;;18.50;3.90;;;13.20;99.90;;;12.38;100.00;100743.28;4169532;28;20389;-71
2022/12/22 11:39:19;;;;;;;22.00;4.53;;;13.20;99.90;;;12.34;100.00;100745.44;4168009;28;20120;-71
2022/12/22 11:42:17;;;;;;;14.63;4.28;;;13.10;99.90;;;12.30;100.00;100722.97;4169220;28;20037;-70
2022/12/22 11:44:59;;;;;;;23.05;5.72;;;13.10;99.90;;;12.29;100.00;100741.63;4084762;29;20472;-71
2022/12/22 11:47:24;;;;;;;13.32;3.13;;;13.10;99.90;;;12.25;100.00;100735.84;4086924;29;20103;-71
2022/12/22 11:49:43;;;;;;;17.95;6.07;;;13.10;99.90;;;12.26;100.00;100737.50;4118325;28;20041;-71
2022/12/22 11:52:41;;;;;;;10.82;4.22;;;13.10;99.90;;;12.26;100.00;100720.81;4168059;28;20436;-71
2022/12/22 11:54:57;;;;;;;14.02;4.10;;;13.10;99.90;;;12.29;100.00;100720.47;4164870;28;20033;-71
2022/12/22 11:57:33;;;;;;;14.15;4.18;;;13.10;99.90;;;12.32;100.00;100722.78;4157242;28;20068;-71
2022/12/22 11:59:58;;;;;;;11.70;3.15;;;13.10;99.90;;;12.37;100.00;100699.28;4167706;28;20025;-71
2022/12/22 12:02:07;;;;;;;8.38;1.50;;;13.10;99.90;;;12.52;100.00;100700.25;4168020;28;20029;-71
2022/12/22 12:04:52;;;;;;;8.32;1.60;;;13.20;99.90;;;12.52;100.00;100694.97;4167508;28;20025;-71
2022/12/22 12:07:36;;;;;;;6.47;1.30;;;13.20;99.90;;;12.64;100.00;100683.84;4168668;28;20443;-71
2022/12/22 12:10:19;;;;;;;6.72;1.20;;;13.30;99.90;;;12.70;100.00;100671.75;4141372;28;20025;-71